Ain el Beida Airport

Airport
ICAO code: 
DAUU
IATA Code: 
OGX
Summary
ICAO Region: 
AFI
Territory: 
Location: 
, Ouargla
Serving: 
Ouargla
Elevation: 
492 ft
Coordinates: 
Aerial View: 
31° 55' 2.003" N, 5° 24' 46.001" E
Metar
Observation
DAUU 080200Z 22005KT CAVOK 07/01 Q1021
Station
Ouargla
Date/Time
2021-12-08 02:00:00
Wind direction
220°
Wind speed
05 kts
Lowest cloud amount
clouds and visibility OK
Temperature
7°C
Dew point
1°C
Humidity
65%
QNH
1021 hPa
Weather condition
n/a

Runways

Designator Length Width Surface Rops
2/20 3000 45 ASP No/No
18/36 3100 45 ASP No/No
Airport map: 
Aerial View: 

SKYbrary Partners:

Safety knowledge contributed by: